sensor_id;sensor_type;location;lat;lon;timestamp;P1;durP1;ratioP1;P2;durP2;ratioP2
12482;SDS011;6306;47.134;15.344;2022-07-29T00:01:55;4.77;;;4.40;;
12482;SDS011;6306;47.134;15.344;2022-07-29T00:04:21;5.47;;;5.07;;
12482;SDS011;6306;47.134;15.344;2022-07-29T00:06:47;5.50;;;4.80;;
12482;SDS011;6306;47.134;15.344;2022-07-29T00:09:13;4.93;;;4.53;;
12482;SDS011;6306;47.134;15.344;2022-07-29T00:11:39;5.30;;;4.90;;
12482;SDS011;6306;47.134;15.344;2022-07-29T00:14:05;4.83;;;4.43;;
12482;SDS011;6306;47.134;15.344;2022-07-29T00:16:31;4.87;;;4.47;;
12482;SDS011;6306;47.134;15.344;2022-07-29T00:18:57;4.90;;;4.50;;
12482;SDS011;6306;47.134;15.344;2022-07-29T00:21:23;5.30;;;4.60;;
12482;SDS011;6306;47.134;15.344;2022-07-29T00:23:49;5.53;;;5.13;;
12482;SDS011;6306;47.134;15.344;2022-07-29T00:26:16;4.87;;;4.47;;
12482;SDS011;6306;47.134;15.344;2022-07-29T00:28:42;4.80;;;4.30;;
12482;SDS011;6306;47.134;15.344;2022-07-29T00:31:08;5.50;;;5.00;;
12482;SDS011;6306;47.134;15.344;2022-07-29T00:33:34;5.33;;;4.83;;
12482;SDS011;6306;47.134;15.344;2022-07-29T00:36:00;5.20;;;4.70;;
12482;SDS011;6306;47.134;15.344;2022-07-29T00:38:26;5.47;;;4.97;;
12482;SDS011;6306;47.134;15.344;2022-07-29T00:40:52;4.00;;;3.70;;
12482;SDS011;6306;47.134;15.344;2022-07-29T00:43:18;4.23;;;3.93;;
12482;SDS011;6306;47.134;15.344;2022-07-29T00:45:44;4.93;;;4.50;;
12482;SDS011;6306;47.134;15.344;2022-07-29T00:48:10;5.33;;;4.83;;
12482;SDS011;6306;47.134;15.344;2022-07-29T00:50:36;5.47;;;4.97;;
12482;SDS011;6306;47.134;15.344;2022-07-29T00:53:03;5.23;;;4.73;;
12482;SDS011;6306;47.134;15.344;2022-07-29T00:55:30;5.23;;;4.73;;
12482;SDS011;6306;47.134;15.344;2022-07-29T00:57:56;5.10;;;4.60;;
12482;SDS011;6306;47.134;15.344;2022-07-29T01:00:24;5.30;;;4.63;;
12482;SDS011;6306;47.134;15.344;2022-07-29T01:02:51;5.23;;;4.67;;
12482;SDS011;6306;47.134;15.344;2022-07-29T01:05:18;5.93;;;5.20;;
12482;SDS011;6306;47.134;15.344;2022-07-29T01:07:44;4.50;;;4.20;;
12482;SDS011;6306;47.134;15.344;2022-07-29T01:10:12;7.47;;;5.70;;
12482;SDS011;6306;47.134;15.344;2022-07-29T01:12:38;5.90;;;5.40;;
12482;SDS011;6306;47.134;15.344;2022-07-29T01:15:05;5.27;;;4.80;;
12482;SDS011;6306;47.134;15.344;2022-07-29T01:17:33;5.30;;;4.80;;
12482;SDS011;6306;47.134;15.344;2022-07-29T01:23:03;6.60;;;4.97;;
12482;SDS011;6306;47.134;15.344;2022-07-29T01:31:02;5.90;;;5.40;;
12482;SDS011;6306;47.134;15.344;2022-07-29T01:33:30;5.73;;;5.17;;
12482;SDS011;6306;47.134;15.344;2022-07-29T01:36:14;5.27;;;4.77;;
12482;SDS011;6306;47.134;15.344;2022-07-29T01:38:42;7.50;;;5.30;;
12482;SDS011;6306;47.134;15.344;2022-07-29T01:41:12;5.80;;;5.30;;
12482;SDS011;6306;47.134;15.344;2022-07-29T01:43:49;4.70;;;4.30;;
12482;SDS011;6306;47.134;15.344;2022-07-29T01:46:20;5.93;;;5.43;;
12482;SDS011;6306;47.134;15.344;2022-07-29T01:48:47;5.17;;;4.67;;
12482;SDS011;6306;47.134;15.344;2022-07-29T01:51:16;5.20;;;4.80;;
12482;SDS011;6306;47.134;15.344;2022-07-29T01:53:45;4.63;;;4.27;;
12482;SDS011;6306;47.134;15.344;2022-07-29T01:56:11;4.80;;;4.40;;
12482;SDS011;6306;47.134;15.344;2022-07-29T01:58:40;4.37;;;4.03;;
12482;SDS011;6306;47.134;15.344;2022-07-29T02:01:08;4.10;;;3.80;;
12482;SDS011;6306;47.134;15.344;2022-07-29T02:03:35;6.57;;;5.20;;
12482;SDS011;6306;47.134;15.344;2022-07-29T02:06:03;5.43;;;4.93;;
12482;SDS011;6306;47.134;15.344;2022-07-29T02:08:30;5.37;;;4.90;;
12482;SDS011;6306;47.134;15.344;2022-07-29T02:10:56;6.63;;;6.10;;
12482;SDS011;6306;47.134;15.344;2022-07-29T02:13:23;5.73;;;5.23;;
12482;SDS011;6306;47.134;15.344;2022-07-29T02:15:50;5.20;;;4.80;;
12482;SDS011;6306;47.134;15.344;2022-07-29T02:18:17;5.53;;;5.03;;
12482;SDS011;6306;47.134;15.344;2022-07-29T02:20:44;5.77;;;5.30;;
12482;SDS011;6306;47.134;15.344;2022-07-29T02:23:11;7.00;;;5.00;;
12482;SDS011;6306;47.134;15.344;2022-07-29T02:25:38;5.60;;;5.10;;
12482;SDS011;6306;47.134;15.344;2022-07-29T02:28:06;6.30;;;5.80;;
12482;SDS011;6306;47.134;15.344;2022-07-29T02:30:33;6.17;;;5.70;;
12482;SDS011;6306;47.134;15.344;2022-07-29T02:33:02;5.40;;;5.00;;
12482;SDS011;6306;47.134;15.344;2022-07-29T02:35:29;5.67;;;5.17;;
12482;SDS011;6306;47.134;15.344;2022-07-29T02:37:55;5.63;;;4.80;;
12482;SDS011;6306;47.134;15.344;2022-07-29T02:40:40;4.87;;;4.53;;
12482;SDS011;6306;47.134;15.344;2022-07-29T02:43:08;5.57;;;5.07;;
12482;SDS011;6306;47.134;15.344;2022-07-29T02:45:34;5.53;;;5.07;;
12482;SDS011;6306;47.134;15.344;2022-07-29T02:48:03;5.83;;;5.33;;
12482;SDS011;6306;47.134;15.344;2022-07-29T02:50:34;4.80;;;4.40;;
12482;SDS011;6306;47.134;15.344;2022-07-29T02:53:18;5.07;;;4.67;;
12482;SDS011;6306;47.134;15.344;2022-07-29T02:55:56;5.53;;;5.00;;
12482;SDS011;6306;47.134;15.344;2022-07-29T02:58:29;5.43;;;4.93;;
12482;SDS011;6306;47.134;15.344;2022-07-29T03:00:56;6.30;;;5.70;;
12482;SDS011;6306;47.134;15.344;2022-07-29T03:03:24;5.03;;;4.43;;
12482;SDS011;6306;47.134;15.344;2022-07-29T03:05:54;5.10;;;4.60;;
12482;SDS011;6306;47.134;15.344;2022-07-29T03:08:20;5.90;;;5.30;;
12482;SDS011;6306;47.134;15.344;2022-07-29T03:10:47;5.87;;;5.37;;
12482;SDS011;6306;47.134;15.344;2022-07-29T03:13:13;6.10;;;5.60;;
12482;SDS011;6306;47.134;15.344;2022-07-29T03:15:42;6.10;;;5.60;;
12482;SDS011;6306;47.134;15.344;2022-07-29T03:18:08;6.07;;;5.47;;
12482;SDS011;6306;47.134;15.344;2022-07-29T03:20:35;5.10;;;4.70;;
12482;SDS011;6306;47.134;15.344;2022-07-29T03:23:01;6.90;;;6.30;;
12482;SDS011;6306;47.134;15.344;2022-07-29T03:25:27;6.57;;;6.03;;
12482;SDS011;6306;47.134;15.344;2022-07-29T03:27:53;7.20;;;5.67;;
12482;SDS011;6306;47.134;15.344;2022-07-29T03:30:19;5.43;;;4.93;;
12482;SDS011;6306;47.134;15.344;2022-07-29T03:32:45;5.20;;;4.80;;
12482;SDS011;6306;47.134;15.344;2022-07-29T03:35:11;5.67;;;5.13;;
12482;SDS011;6306;47.134;15.344;2022-07-29T03:37:37;5.00;;;4.60;;
12482;SDS011;6306;47.134;15.344;2022-07-29T03:40:05;6.37;;;5.80;;
12482;SDS011;6306;47.134;15.344;2022-07-29T03:42:33;5.93;;;5.40;;
12482;SDS011;6306;47.134;15.344;2022-07-29T03:45:00;5.80;;;5.27;;
12482;SDS011;6306;47.134;15.344;2022-07-29T03:47:27;5.80;;;5.30;;
12482;SDS011;6306;47.134;15.344;2022-07-29T03:49:56;4.30;;;3.80;;
12482;SDS011;6306;47.134;15.344;2022-07-29T03:52:22;4.87;;;4.47;;
12482;SDS011;6306;47.134;15.344;2022-07-29T03:54:48;7.93;;;5.63;;
12482;SDS011;6306;47.134;15.344;2022-07-29T03:57:14;5.13;;;4.73;;
12482;SDS011;6306;47.134;15.344;2022-07-29T03:59:41;5.43;;;4.97;;
12482;SDS011;6306;47.134;15.344;2022-07-29T04:02:08;5.10;;;4.70;;
12482;SDS011;6306;47.134;15.344;2022-07-29T04:04:35;5.63;;;5.00;;
12482;SDS011;6306;47.134;15.344;2022-07-29T04:07:01;6.83;;;5.90;;
12482;SDS011;6306;47.134;15.344;2022-07-29T04:09:27;5.43;;;5.00;;
12482;SDS011;6306;47.134;15.344;2022-07-29T04:11:53;5.40;;;5.00;;
12482;SDS011;6306;47.134;15.344;2022-07-29T04:14:19;5.57;;;5.07;;
12482;SDS011;6306;47.134;15.344;2022-07-29T04:16:45;7.00;;;5.47;;
12482;SDS011;6306;47.134;15.344;2022-07-29T04:19:11;5.93;;;5.43;;
12482;SDS011;6306;47.134;15.344;2022-07-29T04:21:40;7.60;;;5.37;;
12482;SDS011;6306;47.134;15.344;2022-07-29T04:24:06;6.40;;;5.80;;
12482;SDS011;6306;47.134;15.344;2022-07-29T04:26:33;6.10;;;5.50;;
12482;SDS011;6306;47.134;15.344;2022-07-29T04:28:59;7.00;;;5.07;;
12482;SDS011;6306;47.134;15.344;2022-07-29T04:31:25;10.77;;;5.40;;
12482;SDS011;6306;47.134;15.344;2022-07-29T04:33:51;6.67;;;6.07;;
12482;SDS011;6306;47.134;15.344;2022-07-29T04:36:17;7.13;;;6.10;;
12482;SDS011;6306;47.134;15.344;2022-07-29T04:38:43;5.77;;;5.20;;
12482;SDS011;6306;47.134;15.344;2022-07-29T04:41:09;6.13;;;5.53;;
12482;SDS011;6306;47.134;15.344;2022-07-29T04:43:35;6.47;;;5.90;;
12482;SDS011;6306;47.134;15.344;2022-07-29T04:46:02;6.03;;;5.43;;
12482;SDS011;6306;47.134;15.344;2022-07-29T04:48:28;7.00;;;6.27;;
12482;SDS011;6306;47.134;15.344;2022-07-29T04:50:55;8.80;;;6.67;;
12482;SDS011;6306;47.134;15.344;2022-07-29T04:53:21;6.40;;;5.67;;
12482;SDS011;6306;47.134;15.344;2022-07-29T04:55:47;6.83;;;6.10;;
12482;SDS011;6306;47.134;15.344;2022-07-29T04:58:13;7.13;;;6.53;;
12482;SDS011;6306;47.134;15.344;2022-07-29T05:00:39;6.17;;;5.57;;
12482;SDS011;6306;47.134;15.344;2022-07-29T05:03:05;7.70;;;7.00;;
12482;SDS011;6306;47.134;15.344;2022-07-29T05:05:31;11.93;;;6.07;;
12482;SDS011;6306;47.134;15.344;2022-07-29T05:07:57;11.00;;;6.10;;
12482;SDS011;6306;47.134;15.344;2022-07-29T05:10:23;6.33;;;5.70;;
12482;SDS011;6306;47.134;15.344;2022-07-29T05:12:49;5.50;;;5.00;;
12482;SDS011;6306;47.134;15.344;2022-07-29T05:15:15;7.17;;;6.47;;
12482;SDS011;6306;47.134;15.344;2022-07-29T05:17:42;6.17;;;5.63;;
12482;SDS011;6306;47.134;15.344;2022-07-29T05:20:08;6.07;;;5.50;;
12482;SDS011;6306;47.134;15.344;2022-07-29T05:22:35;6.20;;;5.60;;
12482;SDS011;6306;47.134;15.344;2022-07-29T05:25:01;7.17;;;6.50;;
12482;SDS011;6306;47.134;15.344;2022-07-29T05:27:27;6.80;;;6.30;;
12482;SDS011;6306;47.134;15.344;2022-07-29T05:29:53;6.60;;;5.80;;
12482;SDS011;6306;47.134;15.344;2022-07-29T05:32:19;6.00;;;5.50;;
12482;SDS011;6306;47.134;15.344;2022-07-29T05:34:45;6.83;;;5.87;;
12482;SDS011;6306;47.134;15.344;2022-07-29T05:37:11;6.53;;;5.90;;
12482;SDS011;6306;47.134;15.344;2022-07-29T05:39:38;5.63;;;5.13;;
12482;SDS011;6306;47.134;15.344;2022-07-29T05:42:07;5.87;;;5.37;;
12482;SDS011;6306;47.134;15.344;2022-07-29T05:44:36;6.23;;;5.63;;
12482;SDS011;6306;47.134;15.344;2022-07-29T05:47:02;5.57;;;5.07;;
12482;SDS011;6306;47.134;15.344;2022-07-29T05:49:28;7.13;;;5.23;;
12482;SDS011;6306;47.134;15.344;2022-07-29T05:51:54;7.17;;;5.47;;
12482;SDS011;6306;47.134;15.344;2022-07-29T05:54:20;6.10;;;5.60;;
12482;SDS011;6306;47.134;15.344;2022-07-29T05:56:46;7.20;;;6.50;;
12482;SDS011;6306;47.134;15.344;2022-07-29T05:59:12;8.03;;;5.70;;
12482;SDS011;6306;47.134;15.344;2022-07-29T06:01:38;6.90;;;5.43;;
12482;SDS011;6306;47.134;15.344;2022-07-29T06:04:05;6.63;;;5.90;;
12482;SDS011;6306;47.134;15.344;2022-07-29T06:06:32;7.33;;;6.63;;
12482;SDS011;6306;47.134;15.344;2022-07-29T06:08:58;7.57;;;6.90;;
12482;SDS011;6306;47.134;15.344;2022-07-29T06:11:24;6.57;;;5.87;;
12482;SDS011;6306;47.134;15.344;2022-07-29T06:13:50;9.60;;;6.40;;
12482;SDS011;6306;47.134;15.344;2022-07-29T06:16:16;6.20;;;5.60;;
12482;SDS011;6306;47.134;15.344;2022-07-29T06:18:42;7.10;;;5.93;;
12482;SDS011;6306;47.134;15.344;2022-07-29T06:21:09;5.80;;;4.80;;
12482;SDS011;6306;47.134;15.344;2022-07-29T06:23:35;5.87;;;5.30;;
12482;SDS011;6306;47.134;15.344;2022-07-29T06:26:02;6.50;;;6.00;;
12482;SDS011;6306;47.134;15.344;2022-07-29T06:28:28;6.30;;;5.70;;
12482;SDS011;6306;47.134;15.344;2022-07-29T06:30:54;6.27;;;5.67;;
12482;SDS011;6306;47.134;15.344;2022-07-29T06:33:20;7.40;;;6.73;;
12482;SDS011;6306;47.134;15.344;2022-07-29T06:35:46;9.03;;;6.60;;
12482;SDS011;6306;47.134;15.344;2022-07-29T06:38:12;6.80;;;6.03;;
12482;SDS011;6306;47.134;15.344;2022-07-29T06:40:42;8.43;;;7.63;;
12482;SDS011;6306;47.134;15.344;2022-07-29T06:43:36;7.13;;;6.50;;
12482;SDS011;6306;47.134;15.344;2022-07-29T06:46:04;7.03;;;5.73;;
12482;SDS011;6306;47.134;15.344;2022-07-29T06:48:31;6.30;;;5.80;;
12482;SDS011;6306;47.134;15.344;2022-07-29T06:50:57;6.17;;;5.67;;
12482;SDS011;6306;47.134;15.344;2022-07-29T06:53:23;6.40;;;5.83;;
12482;SDS011;6306;47.134;15.344;2022-07-29T06:55:49;5.90;;;5.30;;
12482;SDS011;6306;47.134;15.344;2022-07-29T06:58:15;6.00;;;5.40;;
12482;SDS011;6306;47.134;15.344;2022-07-29T07:00:43;9.03;;;6.67;;
12482;SDS011;6306;47.134;15.344;2022-07-29T07:03:10;5.30;;;4.80;;
12482;SDS011;6306;47.134;15.344;2022-07-29T07:05:36;6.50;;;5.93;;
12482;SDS011;6306;47.134;15.344;2022-07-29T07:08:02;6.03;;;5.53;;
12482;SDS011;6306;47.134;15.344;2022-07-29T07:10:28;5.60;;;5.10;;
12482;SDS011;6306;47.134;15.344;2022-07-29T07:12:54;5.63;;;5.10;;
12482;SDS011;6306;47.134;15.344;2022-07-29T07:15:20;5.63;;;4.77;;
12482;SDS011;6306;47.134;15.344;2022-07-29T07:17:47;5.67;;;5.17;;
12482;SDS011;6306;47.134;15.344;2022-07-29T07:20:14;5.13;;;4.27;;
12482;SDS011;6306;47.134;15.344;2022-07-29T07:22:40;4.87;;;4.10;;
12482;SDS011;6306;47.134;15.344;2022-07-29T07:25:06;5.30;;;4.90;;
12482;SDS011;6306;47.134;15.344;2022-07-29T07:27:32;5.63;;;4.80;;
12482;SDS011;6306;47.134;15.344;2022-07-29T07:29:58;5.20;;;4.80;;
12482;SDS011;6306;47.134;15.344;2022-07-29T07:32:24;5.23;;;4.83;;
12482;SDS011;6306;47.134;15.344;2022-07-29T07:34:50;6.80;;;4.63;;
12482;SDS011;6306;47.134;15.344;2022-07-29T07:37:16;7.00;;;5.10;;
12482;SDS011;6306;47.134;15.344;2022-07-29T07:39:45;4.80;;;4.50;;
12482;SDS011;6306;47.134;15.344;2022-07-29T07:42:11;4.77;;;4.37;;
12482;SDS011;6306;47.134;15.344;2022-07-29T07:44:38;4.60;;;4.20;;
12482;SDS011;6306;47.134;15.344;2022-07-29T07:47:04;4.70;;;4.30;;
12482;SDS011;6306;47.134;15.344;2022-07-29T07:49:30;4.30;;;3.90;;
12482;SDS011;6306;47.134;15.344;2022-07-29T07:51:56;4.93;;;4.53;;
12482;SDS011;6306;47.134;15.344;2022-07-29T07:54:22;4.83;;;4.10;;
12482;SDS011;6306;47.134;15.344;2022-07-29T07:56:48;4.60;;;4.20;;
12482;SDS011;6306;47.134;15.344;2022-07-29T07:59:15;5.40;;;4.90;;
12482;SDS011;6306;47.134;15.344;2022-07-29T08:01:41;6.60;;;5.17;;
12482;SDS011;6306;47.134;15.344;2022-07-29T08:04:07;4.83;;;4.17;;
12482;SDS011;6306;47.134;15.344;2022-07-29T08:06:33;4.20;;;3.90;;
12482;SDS011;6306;47.134;15.344;2022-07-29T08:09:00;5.67;;;5.27;;
12482;SDS011;6306;47.134;15.344;2022-07-29T08:11:26;5.47;;;5.07;;
12482;SDS011;6306;47.134;15.344;2022-07-29T08:13:53;5.30;;;4.80;;
12482;SDS011;6306;47.134;15.344;2022-07-29T08:16:19;5.13;;;4.67;;
12482;SDS011;6306;47.134;15.344;2022-07-29T08:18:45;6.20;;;4.80;;
12482;SDS011;6306;47.134;15.344;2022-07-29T08:21:12;4.90;;;4.50;;
12482;SDS011;6306;47.134;15.344;2022-07-29T08:23:38;4.33;;;3.93;;
12482;SDS011;6306;47.134;15.344;2022-07-29T08:26:05;5.57;;;4.60;;
12482;SDS011;6306;47.134;15.344;2022-07-29T08:28:35;5.97;;;5.00;;
12482;SDS011;6306;47.134;15.344;2022-07-29T08:31:01;7.00;;;3.90;;
12482;SDS011;6306;47.134;15.344;2022-07-29T08:33:27;4.67;;;4.23;;
12482;SDS011;6306;47.134;15.344;2022-07-29T08:35:53;4.73;;;3.93;;
12482;SDS011;6306;47.134;15.344;2022-07-29T08:38:19;4.33;;;3.93;;
12482;SDS011;6306;47.134;15.344;2022-07-29T08:40:45;4.13;;;3.73;;
12482;SDS011;6306;47.134;15.344;2022-07-29T08:43:11;3.33;;;3.03;;
12482;SDS011;6306;47.134;15.344;2022-07-29T08:48:07;6.30;;;4.50;;
12482;SDS011;6306;47.134;15.344;2022-07-29T08:50:35;4.63;;;4.03;;
12482;SDS011;6306;47.134;15.344;2022-07-29T08:53:01;4.63;;;4.23;;
12482;SDS011;6306;47.134;15.344;2022-07-29T08:55:27;4.10;;;3.70;;
12482;SDS011;6306;47.134;15.344;2022-07-29T08:57:53;4.50;;;3.30;;
12482;SDS011;6306;47.134;15.344;2022-07-29T09:00:19;3.90;;;3.60;;
12482;SDS011;6306;47.134;15.344;2022-07-29T09:02:47;3.90;;;3.60;;
12482;SDS011;6306;47.134;15.344;2022-07-29T09:05:16;4.30;;;3.90;;
12482;SDS011;6306;47.134;15.344;2022-07-29T09:07:43;3.27;;;3.03;;
12482;SDS011;6306;47.134;15.344;2022-07-29T09:10:12;3.70;;;3.33;;
12482;SDS011;6306;47.134;15.344;2022-07-29T09:12:38;3.80;;;3.23;;
12482;SDS011;6306;47.134;15.344;2022-07-29T09:15:05;3.80;;;3.50;;
12482;SDS011;6306;47.134;15.344;2022-07-29T09:17:49;3.40;;;3.20;;
12482;SDS011;6306;47.134;15.344;2022-07-29T09:20:16;4.27;;;3.97;;
12482;SDS011;6306;47.134;15.344;2022-07-29T09:22:42;4.77;;;3.87;;
12482;SDS011;6306;47.134;15.344;2022-07-29T09:25:12;3.13;;;2.93;;
12482;SDS011;6306;47.134;15.344;2022-07-29T09:27:38;3.93;;;3.63;;
12482;SDS011;6306;47.134;15.344;2022-07-29T09:30:05;4.00;;;3.70;;
12482;SDS011;6306;47.134;15.344;2022-07-29T09:32:32;3.67;;;3.37;;
12482;SDS011;6306;47.134;15.344;2022-07-29T09:35:17;3.50;;;3.20;;
12482;SDS011;6306;47.134;15.344;2022-07-29T09:37:44;4.03;;;3.73;;
12482;SDS011;6306;47.134;15.344;2022-07-29T09:40:17;3.53;;;3.23;;
12482;SDS011;6306;47.134;15.344;2022-07-29T09:42:43;3.53;;;3.33;;
12482;SDS011;6306;47.134;15.344;2022-07-29T09:45:10;4.17;;;3.80;;
12482;SDS011;6306;47.134;15.344;2022-07-29T09:47:46;4.57;;;3.63;;
12482;SDS011;6306;47.134;15.344;2022-07-29T09:50:14;3.77;;;3.47;;
12482;SDS011;6306;47.134;15.344;2022-07-29T09:52:50;3.57;;;3.23;;
12482;SDS011;6306;47.134;15.344;2022-07-29T09:55:16;3.27;;;3.00;;
12482;SDS011;6306;47.134;15.344;2022-07-29T09:57:43;4.27;;;3.97;;
12482;SDS011;6306;47.134;15.344;2022-07-29T10:00:10;4.80;;;3.63;;
12482;SDS011;6306;47.134;15.344;2022-07-29T10:02:37;3.70;;;3.50;;
12482;SDS011;6306;47.134;15.344;2022-07-29T10:05:04;4.43;;;4.03;;
12482;SDS011;6306;47.134;15.344;2022-07-29T10:07:44;3.50;;;3.30;;
12482;SDS011;6306;47.134;15.344;2022-07-29T10:10:10;3.90;;;3.63;;
12482;SDS011;6306;47.134;15.344;2022-07-29T10:12:55;4.27;;;3.87;;
12482;SDS011;6306;47.134;15.344;2022-07-29T10:15:26;3.60;;;3.30;;
12482;SDS011;6306;47.134;15.344;2022-07-29T10:17:53;3.67;;;3.40;;
12482;SDS011;6306;47.134;15.344;2022-07-29T10:20:20;3.70;;;3.40;;
12482;SDS011;6306;47.134;15.344;2022-07-29T10:22:46;4.10;;;3.70;;
12482;SDS011;6306;47.134;15.344;2022-07-29T10:25:12;3.97;;;3.63;;
12482;SDS011;6306;47.134;15.344;2022-07-29T10:27:39;3.93;;;3.63;;
12482;SDS011;6306;47.134;15.344;2022-07-29T10:30:05;4.13;;;3.67;;
12482;SDS011;6306;47.134;15.344;2022-07-29T10:32:38;3.63;;;3.43;;
12482;SDS011;6306;47.134;15.344;2022-07-29T10:40:36;4.27;;;3.90;;
12482;SDS011;6306;47.134;15.344;2022-07-29T10:43:32;4.67;;;4.30;;
12482;SDS011;6306;47.134;15.344;2022-07-29T10:46:01;3.30;;;3.10;;
12482;SDS011;6306;47.134;15.344;2022-07-29T10:48:27;4.00;;;3.63;;
12482;SDS011;6306;47.134;15.344;2022-07-29T10:51:00;4.57;;;4.17;;
12482;SDS011;6306;47.134;15.344;2022-07-29T10:53:46;3.63;;;3.33;;
12482;SDS011;6306;47.134;15.344;2022-07-29T10:56:26;4.10;;;3.80;;
12482;SDS011;6306;47.134;15.344;2022-07-29T11:01:36;4.67;;;3.80;;
12482;SDS011;6306;47.134;15.344;2022-07-29T11:04:02;4.20;;;3.80;;
12482;SDS011;6306;47.134;15.344;2022-07-29T11:09:15;4.57;;;4.17;;
12482;SDS011;6306;47.134;15.344;2022-07-29T11:11:42;4.13;;;3.73;;
12482;SDS011;6306;47.134;15.344;2022-07-29T11:14:08;4.03;;;3.30;;
12482;SDS011;6306;47.134;15.344;2022-07-29T11:19:19;3.70;;;3.50;;
12482;SDS011;6306;47.134;15.344;2022-07-29T11:21:45;3.47;;;3.20;;
12482;SDS011;6306;47.134;15.344;2022-07-29T11:24:25;3.60;;;3.30;;
12482;SDS011;6306;47.134;15.344;2022-07-29T11:29:55;3.63;;;3.20;;
12482;SDS011;6306;47.134;15.344;2022-07-29T11:32:22;3.10;;;2.90;;
12482;SDS011;6306;47.134;15.344;2022-07-29T11:34:49;3.27;;;3.07;;
12482;SDS011;6306;47.134;15.344;2022-07-29T11:37:16;4.23;;;3.93;;
12482;SDS011;6306;47.134;15.344;2022-07-29T11:39:43;3.87;;;3.47;;
12482;SDS011;6306;47.134;15.344;2022-07-29T11:44:54;3.53;;;3.27;;
12482;SDS011;6306;47.134;15.344;2022-07-29T11:47:21;3.83;;;3.47;;
12482;SDS011;6306;47.134;15.344;2022-07-29T11:49:47;3.47;;;3.17;;
12482;SDS011;6306;47.134;15.344;2022-07-29T11:52:15;3.03;;;2.83;;
12482;SDS011;6306;47.134;15.344;2022-07-29T11:54:41;3.80;;;3.50;;
12482;SDS011;6306;47.134;15.344;2022-07-29T11:57:08;3.10;;;2.90;;
12482;SDS011;6306;47.134;15.344;2022-07-29T11:59:38;4.07;;;3.67;;
12482;SDS011;6306;47.134;15.344;2022-07-29T12:02:04;3.87;;;3.57;;
12482;SDS011;6306;47.134;15.344;2022-07-29T12:04:30;3.63;;;3.30;;
12482;SDS011;6306;47.134;15.344;2022-07-29T12:06:56;3.60;;;3.33;;
12482;SDS011;6306;47.134;15.344;2022-07-29T12:09:23;3.97;;;2.90;;
12482;SDS011;6306;47.134;15.344;2022-07-29T12:11:55;5.20;;;3.63;;
12482;SDS011;6306;47.134;15.344;2022-07-29T12:14:28;4.10;;;3.80;;
12482;SDS011;6306;47.134;15.344;2022-07-29T12:16:55;4.03;;;3.70;;
12482;SDS011;6306;47.134;15.344;2022-07-29T12:19:21;8.50;;;3.90;;
12482;SDS011;6306;47.134;15.344;2022-07-29T12:21:48;3.97;;;3.60;;
12482;SDS011;6306;47.134;15.344;2022-07-29T12:24:15;3.60;;;3.30;;
12482;SDS011;6306;47.134;15.344;2022-07-29T12:26:51;2.93;;;2.73;;
12482;SDS011;6306;47.134;15.344;2022-07-29T12:29:18;3.93;;;3.57;;
12482;SDS011;6306;47.134;15.344;2022-07-29T12:31:44;3.63;;;3.27;;
12482;SDS011;6306;47.134;15.344;2022-07-29T12:34:11;3.60;;;3.30;;
12482;SDS011;6306;47.134;15.344;2022-07-29T12:36:38;3.80;;;3.50;;
12482;SDS011;6306;47.134;15.344;2022-07-29T12:39:04;4.30;;;3.90;;
12482;SDS011;6306;47.134;15.344;2022-07-29T12:41:30;5.37;;;3.50;;
12482;SDS011;6306;47.134;15.344;2022-07-29T12:43:57;4.80;;;4.40;;
12482;SDS011;6306;47.134;15.344;2022-07-29T12:46:23;2.97;;;2.67;;
12482;SDS011;6306;47.134;15.344;2022-07-29T12:48:53;4.00;;;3.70;;
12482;SDS011;6306;47.134;15.344;2022-07-29T12:51:36;4.60;;;4.20;;
12482;SDS011;6306;47.134;15.344;2022-07-29T12:56:29;3.90;;;3.60;;
12482;SDS011;6306;47.134;15.344;2022-07-29T12:58:55;4.23;;;3.83;;
12482;SDS011;6306;47.134;15.344;2022-07-29T13:01:21;4.23;;;3.90;;
12482;SDS011;6306;47.134;15.344;2022-07-29T13:03:49;4.50;;;4.00;;
12482;SDS011;6306;47.134;15.344;2022-07-29T13:09:04;3.57;;;3.27;;
12482;SDS011;6306;47.134;15.344;2022-07-29T13:11:32;3.20;;;3.00;;
12482;SDS011;6306;47.134;15.344;2022-07-29T13:13:58;3.37;;;3.17;;
12482;SDS011;6306;47.134;15.344;2022-07-29T13:16:24;3.30;;;3.10;;
12482;SDS011;6306;47.134;15.344;2022-07-29T13:19:02;4.20;;;3.90;;
12482;SDS011;6306;47.134;15.344;2022-07-29T13:21:29;3.63;;;3.43;;
12482;SDS011;6306;47.134;15.344;2022-07-29T13:23:55;3.53;;;3.30;;
12482;SDS011;6306;47.134;15.344;2022-07-29T13:26:21;3.63;;;3.33;;
12482;SDS011;6306;47.134;15.344;2022-07-29T13:28:47;4.00;;;3.70;;
12482;SDS011;6306;47.134;15.344;2022-07-29T13:31:13;4.20;;;3.57;;
12482;SDS011;6306;47.134;15.344;2022-07-29T13:33:39;3.73;;;3.43;;
12482;SDS011;6306;47.134;15.344;2022-07-29T13:36:05;4.17;;;3.83;;
12482;SDS011;6306;47.134;15.344;2022-07-29T13:38:31;4.50;;;4.20;;
12482;SDS011;6306;47.134;15.344;2022-07-29T13:40:57;3.63;;;3.33;;
12482;SDS011;6306;47.134;15.344;2022-07-29T13:43:23;4.63;;;3.33;;
12482;SDS011;6306;47.134;15.344;2022-07-29T13:45:49;3.00;;;2.80;;
12482;SDS011;6306;47.134;15.344;2022-07-29T13:48:15;4.20;;;3.53;;
12482;SDS011;6306;47.134;15.344;2022-07-29T13:50:41;3.50;;;3.20;;
12482;SDS011;6306;47.134;15.344;2022-07-29T13:53:07;3.43;;;3.13;;
12482;SDS011;6306;47.134;15.344;2022-07-29T13:55:33;3.07;;;2.83;;
12482;SDS011;6306;47.134;15.344;2022-07-29T13:57:59;3.50;;;3.27;;
12482;SDS011;6306;47.134;15.344;2022-07-29T14:00:25;3.57;;;3.30;;
12482;SDS011;6306;47.134;15.344;2022-07-29T14:02:51;4.50;;;4.10;;
12482;SDS011;6306;47.134;15.344;2022-07-29T14:05:17;4.87;;;3.60;;
12482;SDS011;6306;47.134;15.344;2022-07-29T14:07:43;4.27;;;3.67;;
12482;SDS011;6306;47.134;15.344;2022-07-29T14:10:09;4.13;;;3.77;;
12482;SDS011;6306;47.134;15.344;2022-07-29T14:12:35;5.83;;;3.87;;
12482;SDS011;6306;47.134;15.344;2022-07-29T14:15:02;3.80;;;3.50;;
12482;SDS011;6306;47.134;15.344;2022-07-29T14:17:28;3.37;;;3.10;;
12482;SDS011;6306;47.134;15.344;2022-07-29T14:19:54;3.40;;;3.07;;
12482;SDS011;6306;47.134;15.344;2022-07-29T14:22:20;4.87;;;4.37;;
12482;SDS011;6306;47.134;15.344;2022-07-29T14:24:46;3.60;;;3.33;;
12482;SDS011;6306;47.134;15.344;2022-07-29T14:27:12;5.27;;;4.03;;
12482;SDS011;6306;47.134;15.344;2022-07-29T14:29:38;4.00;;;3.70;;
12482;SDS011;6306;47.134;15.344;2022-07-29T14:32:07;4.00;;;3.63;;
12482;SDS011;6306;47.134;15.344;2022-07-29T14:34:35;4.07;;;3.67;;
12482;SDS011;6306;47.134;15.344;2022-07-29T14:37:01;4.30;;;4.00;;
12482;SDS011;6306;47.134;15.344;2022-07-29T14:39:30;5.83;;;3.93;;
12482;SDS011;6306;47.134;15.344;2022-07-29T14:41:56;5.07;;;4.40;;
12482;SDS011;6306;47.134;15.344;2022-07-29T14:44:22;4.30;;;3.90;;
12482;SDS011;6306;47.134;15.344;2022-07-29T14:46:49;5.67;;;3.73;;
12482;SDS011;6306;47.134;15.344;2022-07-29T14:49:15;4.30;;;4.00;;
12482;SDS011;6306;47.134;15.344;2022-07-29T14:51:41;5.70;;;5.20;;
12482;SDS011;6306;47.134;15.344;2022-07-29T14:54:07;3.83;;;3.60;;
12482;SDS011;6306;47.134;15.344;2022-07-29T14:56:33;4.20;;;3.90;;
12482;SDS011;6306;47.134;15.344;2022-07-29T14:58:59;4.10;;;3.80;;
12482;SDS011;6306;47.134;15.344;2022-07-29T15:01:25;4.60;;;4.30;;
12482;SDS011;6306;47.134;15.344;2022-07-29T15:03:51;4.23;;;3.60;;
12482;SDS011;6306;47.134;15.344;2022-07-29T15:06:17;5.03;;;4.57;;
12482;SDS011;6306;47.134;15.344;2022-07-29T15:08:43;4.10;;;3.80;;
12482;SDS011;6306;47.134;15.344;2022-07-29T15:11:09;4.67;;;4.37;;
12482;SDS011;6306;47.134;15.344;2022-07-29T15:13:35;4.10;;;3.80;;
12482;SDS011;6306;47.134;15.344;2022-07-29T15:16:01;4.00;;;3.70;;
12482;SDS011;6306;47.134;15.344;2022-07-29T15:18:27;3.73;;;3.43;;
12482;SDS011;6306;47.134;15.344;2022-07-29T15:20:53;3.83;;;3.53;;
12482;SDS011;6306;47.134;15.344;2022-07-29T15:23:19;4.33;;;4.00;;
12482;SDS011;6306;47.134;15.344;2022-07-29T15:25:45;3.13;;;2.80;;